Time;durP1;ratioP1;P1;durP2;ratioP2;P2;SDS_P1;SDS_P2;PMS_P1;PMS_P2;Temp;Humidity;BMP_temperature;BMP_pressure;BME280_temperature;BME280_humidity;BME280_pressure;Samples;Min_cycle;Max_cycle;Signal;HPM_P1;HPM_P2
2020/12/22 00:00:43;;;;;;;21.97;12.40;;;;;;;;;;726513;192;915695;-66
2020/12/22 00:03:09;;;;;;;17.77;11.67;;;;;;;;;;723743;191;906814;-66
2020/12/22 00:05:35;;;;;;;21.90;13.90;;;;;;;;;;721536;194;918849;-66
2020/12/22 00:08:01;;;;;;;20.93;13.77;;;;;;;;;;722317;192;917903;-66
2020/12/22 00:10:27;;;;;;;22.83;13.23;;;;;;;;;;724765;191;920600;-66
2020/12/22 00:12:52;;;;;;;22.23;12.60;;;;;;;;;;724986;192;917859;-65
2020/12/22 00:15:18;;;;;;;19.05;12.55;;;;;;;;;;721262;192;919223;-65
2020/12/22 00:17:44;;;;;;;20.70;13.03;;;;;;;;;;718974;194;920678;-66
2020/12/22 00:20:10;;;;;;;27.08;13.73;;;;;;;;;;720891;192;918881;-67
2020/12/22 00:22:36;;;;;;;16.70;11.40;;;;;;;;;;721483;192;918204;-65
2020/12/22 00:25:02;;;;;;;24.03;13.60;;;;;;;;;;718716;192;918904;-66
2020/12/22 00:27:31;;;;;;;24.43;12.57;;;;;;;;;;723300;192;919005;-66
2020/12/22 00:29:54;;;;;;;23.73;12.95;;;;;;;;;;722551;191;946388;-66
2020/12/22 00:32:19;;;;;;;24.40;13.33;;;;;;;;;;729963;190;918892;-66
2020/12/22 00:34:45;;;;;;;23.37;13.27;;;;;;;;;;722020;191;918619;-66
2020/12/22 00:37:11;;;;;;;20.50;12.50;;;;;;;;;;724256;192;919120;-66
2020/12/22 00:39:37;;;;;;;22.03;13.93;;;;;;;;;;727055;192;919120;-65
2020/12/22 00:42:03;;;;;;;19.73;12.27;;;;;;;;;;724879;192;918876;-66
2020/12/22 00:44:28;;;;;;;18.80;11.83;;;;;;;;;;723562;192;918899;-65
2020/12/22 00:46:54;;;;;;;25.87;13.57;;;;;;;;;;725356;192;928425;-67
2020/12/22 00:49:20;;;;;;;19.77;11.60;;;;;;;;;;719865;193;921375;-66
2020/12/22 00:51:46;;;;;;;20.80;12.60;;;;;;;;;;720575;192;1183120;-66
2020/12/22 00:54:12;;;;;;;18.60;10.37;;;;;;;;;;717818;192;919292;-66
2020/12/22 00:56:38;;;;;;;20.50;13.33;;;;;;;;;;714689;195;917621;-66
2020/12/22 00:59:03;;;;;;;21.45;13.68;;;;;;;;;;722738;191;916677;-65
2020/12/22 01:01:30;;;;;;;22.83;12.37;;;;;;;;;;720154;192;925011;-66
2020/12/22 01:03:55;;;;;;;17.40;10.90;;;;;;;;;;729157;192;918832;-67
2020/12/22 01:06:21;;;;;;;21.23;13.40;;;;;;;;;;722099;192;919440;-65
2020/12/22 01:08:47;;;;;;;23.83;12.20;;;;;;;;;;725109;192;917848;-66
2020/12/22 01:11:13;;;;;;;24.48;14.38;;;;;;;;;;726459;191;918632;-66
2020/12/22 01:13:39;;;;;;;24.83;14.20;;;;;;;;;;723999;192;918256;-66
2020/12/22 01:16:04;;;;;;;19.00;11.20;;;;;;;;;;720902;191;922046;-65
2020/12/22 01:18:30;;;;;;;23.08;13.77;;;;;;;;;;718270;192;919409;-66
2020/12/22 01:20:56;;;;;;;19.90;12.10;;;;;;;;;;718520;192;918305;-66
2020/12/22 01:23:22;;;;;;;25.53;12.70;;;;;;;;;;719319;192;918876;-65
2020/12/22 01:25:48;;;;;;;23.77;13.40;;;;;;;;;;719261;192;919287;-65
2020/12/22 01:28:14;;;;;;;21.92;12.13;;;;;;;;;;725844;192;918996;-66
2020/12/22 01:30:39;;;;;;;24.57;13.53;;;;;;;;;;721172;191;919950;-65
2020/12/22 01:33:05;;;;;;;21.33;14.05;;;;;;;;;;724725;191;919629;-66
2020/12/22 01:35:31;;;;;;;19.83;12.50;;;;;;;;;;727638;192;919136;-66
2020/12/22 01:37:57;;;;;;;23.70;12.00;;;;;;;;;;722403;191;921819;-66
2020/12/22 01:40:23;;;;;;;22.70;12.43;;;;;;;;;;723777;191;916358;-66
2020/12/22 01:42:49;;;;;;;20.87;11.83;;;;;;;;;;724090;192;916328;-65
2020/12/22 01:45:14;;;;;;;16.00;11.03;;;;;;;;;;723322;191;919218;-65
2020/12/22 01:47:40;;;;;;;19.70;12.70;;;;;;;;;;722671;192;920780;-66
2020/12/22 01:50:06;;;;;;;27.27;12.00;;;;;;;;;;722859;192;918645;-65
2020/12/22 01:52:32;;;;;;;20.93;12.70;;;;;;;;;;724873;192;1327872;-66
2020/12/22 01:54:58;;;;;;;23.63;12.67;;;;;;;;;;723373;191;942881;-65
2020/12/22 01:57:24;;;;;;;20.83;13.40;;;;;;;;;;721119;192;918118;-66
2020/12/22 01:59:49;;;;;;;21.77;12.67;;;;;;;;;;730407;192;918675;-65
2020/12/22 02:02:18;;;;;;;22.30;12.73;;;;;;;;;;723458;192;919190;-66
2020/12/22 02:04:44;;;;;;;17.00;10.35;;;;;;;;;;722987;191;918803;-65
2020/12/22 02:07:11;;;;;;;18.83;10.77;;;;;;;;;;726641;192;919357;-65
2020/12/22 02:09:35;;;;;;;23.40;14.53;;;;;;;;;;720970;191;919193;-67
2020/12/22 02:12:01;;;;;;;20.07;11.80;;;;;;;;;;721750;191;918579;-66
2020/12/22 02:14:27;;;;;;;22.15;13.45;;;;;;;;;;720298;192;921018;-65
2020/12/22 02:16:53;;;;;;;16.30;10.30;;;;;;;;;;725875;192;919393;-66
2020/12/22 02:19:19;;;;;;;19.53;11.23;;;;;;;;;;721166;191;1018005;-66
2020/12/22 02:21:45;;;;;;;17.37;10.07;;;;;;;;;;723153;192;920095;-65
2020/12/22 02:24:10;;;;;;;23.57;12.07;;;;;;;;;;725995;191;918439;-65
2020/12/22 02:26:36;;;;;;;22.60;10.70;;;;;;;;;;723524;192;918437;-66
2020/12/22 02:29:02;;;;;;;19.97;10.27;;;;;;;;;;721305;192;918681;-66
2020/12/22 02:31:28;;;;;;;22.20;11.67;;;;;;;;;;729495;192;919191;-66
2020/12/22 02:33:54;;;;;;;21.20;11.77;;;;;;;;;;721049;192;918536;-66
2020/12/22 02:36:20;;;;;;;19.30;10.60;;;;;;;;;;721788;191;919652;-66
2020/12/22 02:38:46;;;;;;;21.40;10.77;;;;;;;;;;721000;192;919208;-66
2020/12/22 02:41:11;;;;;;;20.23;11.17;;;;;;;;;;721830;192;1036182;-65
2020/12/22 02:43:37;;;;;;;20.20;10.27;;;;;;;;;;725669;192;919020;-66
2020/12/22 02:46:03;;;;;;;21.40;11.90;;;;;;;;;;721592;192;919033;-66
2020/12/22 02:48:29;;;;;;;20.60;12.70;;;;;;;;;;729437;192;918481;-65
2020/12/22 02:50:55;;;;;;;21.80;11.73;;;;;;;;;;722530;191;919146;-65
2020/12/22 02:53:21;;;;;;;18.10;11.90;;;;;;;;;;719517;191;918696;-65
2020/12/22 02:55:47;;;;;;;20.10;11.37;;;;;;;;;;725705;191;918362;-66
2020/12/22 02:58:13;;;;;;;22.17;13.40;;;;;;;;;;725533;191;918711;-66
2020/12/22 03:00:38;;;;;;;24.45;11.07;;;;;;;;;;723444;191;920174;-67
2020/12/22 03:03:04;;;;;;;23.63;12.70;;;;;;;;;;730311;192;918029;-67
2020/12/22 03:05:30;;;;;;;21.83;13.00;;;;;;;;;;723980;191;918814;-65
2020/12/22 03:07:56;;;;;;;27.65;14.50;;;;;;;;;;725921;191;919309;-66
2020/12/22 03:10:23;;;;;;;21.75;13.35;;;;;;;;;;726189;191;918544;-65
2020/12/22 03:12:48;;;;;;;26.57;13.83;;;;;;;;;;721510;193;919317;-66
2020/12/22 03:15:14;;;;;;;26.67;15.30;;;;;;;;;;721342;191;924225;-71
2020/12/22 03:17:40;;;;;;;26.47;14.80;;;;;;;;;;721222;192;919257;-66
2020/12/22 03:20:07;;;;;;;20.67;12.40;;;;;;;;;;726390;192;918792;-65
2020/12/22 03:22:33;;;;;;;29.47;13.90;;;;;;;;;;720030;191;1004521;-66
2020/12/22 03:24:58;;;;;;;28.80;14.20;;;;;;;;;;722606;192;918853;-66
2020/12/22 03:27:24;;;;;;;27.50;15.40;;;;;;;;;;725477;191;918618;-66
2020/12/22 03:29:50;;;;;;;27.73;13.40;;;;;;;;;;720937;191;920062;-66
2020/12/22 03:32:16;;;;;;;31.93;14.50;;;;;;;;;;722015;191;918756;-66
2020/12/22 03:34:42;;;;;;;29.03;15.93;;;;;;;;;;727489;191;919019;-66
2020/12/22 03:37:08;;;;;;;31.10;16.67;;;;;;;;;;719599;191;919575;-65
2020/12/22 03:39:34;;;;;;;27.50;15.03;;;;;;;;;;722313;191;919041;-66
2020/12/22 03:41:59;;;;;;;30.23;15.60;;;;;;;;;;718389;192;919156;-64
2020/12/22 03:44:25;;;;;;;30.33;15.63;;;;;;;;;;723295;193;920344;-65
2020/12/22 03:46:51;;;;;;;28.43;14.93;;;;;;;;;;717366;191;918215;-66
2020/12/22 03:49:17;;;;;;;25.93;15.37;;;;;;;;;;722481;192;918472;-65
2020/12/22 03:51:43;;;;;;;32.07;16.40;;;;;;;;;;724157;192;920174;-66
2020/12/22 03:54:09;;;;;;;22.77;13.93;;;;;;;;;;722702;191;920063;-65
2020/12/22 03:56:34;;;;;;;28.00;16.63;;;;;;;;;;722788;192;919636;-66
2020/12/22 03:59:00;;;;;;;33.27;17.67;;;;;;;;;;726100;192;918926;-66
2020/12/22 04:01:26;;;;;;;32.03;16.17;;;;;;;;;;723264;191;919069;-64
2020/12/22 04:03:52;;;;;;;27.10;15.68;;;;;;;;;;720099;191;923442;-66
2020/12/22 04:06:18;;;;;;;34.67;16.60;;;;;;;;;;728150;192;918213;-66
2020/12/22 04:08:44;;;;;;;30.50;15.93;;;;;;;;;;724217;191;919025;-66
2020/12/22 04:11:09;;;;;;;35.13;16.30;;;;;;;;;;723991;192;918791;-66
2020/12/22 04:13:35;;;;;;;39.13;17.43;;;;;;;;;;723391;191;918892;-65
2020/12/22 04:16:02;;;;;;;35.00;16.53;;;;;;;;;;724123;192;917997;-65
2020/12/22 04:18:28;;;;;;;37.30;18.10;;;;;;;;;;722509;191;919242;-66
2020/12/22 04:20:54;;;;;;;32.57;15.93;;;;;;;;;;723222;191;917822;-65
2020/12/22 04:23:19;;;;;;;31.77;18.63;;;;;;;;;;727167;192;919128;-66
2020/12/22 04:25:45;;;;;;;32.70;16.63;;;;;;;;;;724453;191;919272;-66
2020/12/22 04:28:11;;;;;;;34.07;17.73;;;;;;;;;;720625;191;918797;-66
2020/12/22 04:30:37;;;;;;;27.00;15.67;;;;;;;;;;729312;191;918914;-68
2020/12/22 04:33:03;;;;;;;29.98;16.10;;;;;;;;;;723760;192;918677;-69
2020/12/22 04:35:29;;;;;;;33.73;17.37;;;;;;;;;;721162;191;918113;-68
2020/12/22 04:37:55;;;;;;;37.80;19.93;;;;;;;;;;727015;192;920205;-68
2020/12/22 04:40:20;;;;;;;30.80;16.13;;;;;;;;;;722025;191;919162;-69
2020/12/22 04:42:46;;;;;;;43.57;19.07;;;;;;;;;;725102;192;918876;-67
2020/12/22 04:45:12;;;;;;;35.93;16.43;;;;;;;;;;719609;191;1015783;-68
2020/12/22 04:47:38;;;;;;;34.93;18.03;;;;;;;;;;718263;192;922613;-68
2020/12/22 04:50:04;;;;;;;33.57;18.93;;;;;;;;;;717072;191;1504055;-68
2020/12/22 04:52:30;;;;;;;27.20;14.77;;;;;;;;;;720842;192;1020564;-68
2020/12/22 04:54:56;;;;;;;41.60;18.63;;;;;;;;;;725137;191;1023018;-66
2020/12/22 04:57:22;;;;;;;34.13;15.97;;;;;;;;;;722753;191;916290;-69
2020/12/22 04:59:47;;;;;;;30.30;16.30;;;;;;;;;;720064;191;1025921;-67
2020/12/22 05:02:13;;;;;;;29.93;16.67;;;;;;;;;;728240;191;919619;-68
2020/12/22 05:04:39;;;;;;;35.67;17.37;;;;;;;;;;720630;192;919531;-68
2020/12/22 05:07:05;;;;;;;33.10;16.90;;;;;;;;;;723595;191;919001;-68
2020/12/22 05:09:32;;;;;;;34.63;20.23;;;;;;;;;;726112;191;918873;-68
2020/12/22 05:11:58;;;;;;;29.43;16.20;;;;;;;;;;726466;194;619543;-67
2020/12/22 05:14:25;;;;;;;25.93;15.77;;;;;;;;;;725346;192;627660;-68
2020/12/22 05:16:51;;;;;;;36.40;18.48;;;;;;;;;;723495;191;815645;-67
2020/12/22 05:19:17;;;;;;;32.50;16.97;;;;;;;;;;731897;190;917441;-68
2020/12/22 05:21:43;;;;;;;33.97;14.80;;;;;;;;;;722721;191;918823;-68
2020/12/22 05:24:09;;;;;;;34.00;18.47;;;;;;;;;;723726;192;919094;-68
2020/12/22 05:26:35;;;;;;;30.70;17.20;;;;;;;;;;724950;191;918962;-68
2020/12/22 05:29:16;;;;;;;47.47;20.57;;;;;;;;;;723758;191;919473;-67
2020/12/22 05:31:44;;;;;;;41.07;21.03;;;;;;;;;;720954;191;919879;-67
2020/12/22 05:34:10;;;;;;;44.40;21.53;;;;;;;;;;725526;191;918233;-68
2020/12/22 05:36:36;;;;;;;49.07;20.30;;;;;;;;;;718224;192;919483;-67
2020/12/22 05:39:02;;;;;;;51.27;23.60;;;;;;;;;;720123;194;918645;-67
2020/12/22 05:41:28;;;;;;;46.30;23.10;;;;;;;;;;721711;192;932808;-68
2020/12/22 05:43:53;;;;;;;54.00;24.07;;;;;;;;;;724842;191;919150;-67
2020/12/22 05:46:19;;;;;;;45.47;23.53;;;;;;;;;;727381;191;918584;-68
2020/12/22 05:48:45;;;;;;;56.35;24.42;;;;;;;;;;723732;192;919170;-68
2020/12/22 05:51:11;;;;;;;58.60;25.20;;;;;;;;;;718027;192;919138;-70
2020/12/22 05:53:41;;;;;;;52.10;24.20;;;;;;;;;;728135;192;918585;-67
2020/12/22 05:56:14;;;;;;;58.60;25.97;;;;;;;;;;722935;192;919404;-67
2020/12/22 05:58:39;;;;;;;56.37;23.27;;;;;;;;;;721755;191;1056663;-68
2020/12/22 06:01:05;;;;;;;59.80;25.00;;;;;;;;;;723587;192;922424;-68
2020/12/22 06:03:31;;;;;;;52.07;23.80;;;;;;;;;;726378;192;919503;-68
2020/12/22 06:05:57;;;;;;;45.67;23.17;;;;;;;;;;724337;192;919322;-67
2020/12/22 06:08:23;;;;;;;52.60;26.17;;;;;;;;;;721794;192;919899;-67
2020/12/22 06:10:49;;;;;;;45.70;24.40;;;;;;;;;;728721;192;918723;-68
2020/12/22 06:13:14;;;;;;;64.30;24.40;;;;;;;;;;720649;192;918099;-67
2020/12/22 06:15:40;;;;;;;65.73;25.47;;;;;;;;;;722750;192;919192;-68
2020/12/22 06:18:06;;;;;;;52.67;25.83;;;;;;;;;;720289;192;918851;-67
2020/12/22 06:20:32;;;;;;;50.23;24.40;;;;;;;;;;723565;194;918219;-68
2020/12/22 06:22:59;;;;;;;56.17;27.33;;;;;;;;;;717601;191;918395;-68
2020/12/22 06:25:25;;;;;;;54.57;27.27;;;;;;;;;;722432;192;969211;-67
2020/12/22 06:27:51;;;;;;;54.97;27.60;;;;;;;;;;727676;191;713403;-67
2020/12/22 06:30:16;;;;;;;59.17;24.27;;;;;;;;;;725402;191;915938;-68
2020/12/22 06:32:43;;;;;;;55.23;24.33;;;;;;;;;;725513;191;918104;-67
2020/12/22 06:35:29;;;;;;;58.63;26.67;;;;;;;;;;728059;191;916547;-68
2020/12/22 06:37:56;;;;;;;54.40;27.63;;;;;;;;;;726609;192;915180;-67
2020/12/22 06:40:37;;;;;;;62.67;28.47;;;;;;;;;;719259;191;1225657;-68
2020/12/22 06:43:02;;;;;;;59.10;26.30;;;;;;;;;;724022;192;919371;-68
2020/12/22 06:45:28;;;;;;;50.83;23.70;;;;;;;;;;722391;192;919002;-68
2020/12/22 06:47:54;;;;;;;45.60;23.53;;;;;;;;;;723987;192;927609;-68
2020/12/22 06:50:26;;;;;;;50.23;23.77;;;;;;;;;;718882;192;918626;-68
2020/12/22 06:52:52;;;;;;;44.97;23.03;;;;;;;;;;723463;192;919310;-68
2020/12/22 06:55:17;;;;;;;41.95;19.30;;;;;;;;;;720419;192;1122811;-67
2020/12/22 06:57:44;;;;;;;45.53;20.97;;;;;;;;;;727423;192;919305;-68
2020/12/22 07:00:10;;;;;;;41.73;19.20;;;;;;;;;;721921;192;921860;-68
2020/12/22 07:02:36;;;;;;;38.83;19.50;;;;;;;;;;721182;191;919844;-68
2020/12/22 07:05:02;;;;;;;38.53;18.97;;;;;;;;;;720908;191;919280;-66
2020/12/22 07:07:28;;;;;;;35.23;17.83;;;;;;;;;;722102;193;917372;-68
2020/12/22 07:09:59;;;;;;;33.77;17.43;;;;;;;;;;715912;191;916225;-68
2020/12/22 07:12:25;;;;;;;31.47;17.17;;;;;;;;;;721969;192;916717;-69
2020/12/22 07:14:51;;;;;;;36.90;17.20;;;;;;;;;;725355;191;915056;-67
2020/12/22 07:17:17;;;;;;;32.57;18.53;;;;;;;;;;722734;191;919370;-69
2020/12/22 07:19:43;;;;;;;25.65;13.98;;;;;;;;;;720533;192;918059;-68
2020/12/22 07:22:09;;;;;;;29.17;15.97;;;;;;;;;;728828;191;910431;-66
2020/12/22 07:24:34;;;;;;;31.43;15.70;;;;;;;;;;724361;192;921658;-68
2020/12/22 07:27:01;;;;;;;27.33;12.70;;;;;;;;;;715612;191;1787851;-68
2020/12/22 07:29:27;;;;;;;31.13;13.77;;;;;;;;;;722571;192;918754;-69
2020/12/22 07:31:53;;;;;;;28.98;14.27;;;;;;;;;;724910;192;919235;-68
2020/12/22 07:34:19;;;;;;;31.53;14.70;;;;;;;;;;719299;192;935710;-68
2020/12/22 07:36:44;;;;;;;29.12;15.50;;;;;;;;;;721625;191;919175;-68
2020/12/22 07:39:13;;;;;;;25.67;14.60;;;;;;;;;;727464;192;918728;-66
2020/12/22 07:41:39;;;;;;;23.20;13.30;;;;;;;;;;724838;191;918271;-68
2020/12/22 07:44:13;;;;;;;27.77;14.60;;;;;;;;;;727478;191;918957;-68
2020/12/22 07:46:39;;;;;;;23.50;13.40;;;;;;;;;;726341;191;632804;-68
2020/12/22 07:49:05;;;;;;;24.97;12.37;;;;;;;;;;731158;192;617039;-68
2020/12/22 07:51:31;;;;;;;21.40;12.07;;;;;;;;;;724976;191;630159;-68
2020/12/22 07:54:00;;;;;;;32.00;14.87;;;;;;;;;;727736;191;616624;-67
2020/12/22 07:56:26;;;;;;;18.17;10.87;;;;;;;;;;725741;192;919320;-68
2020/12/22 07:58:52;;;;;;;22.10;12.50;;;;;;;;;;729324;192;627005;-68
2020/12/22 08:01:18;;;;;;;23.03;12.30;;;;;;;;;;727231;191;630626;-68
2020/12/22 08:03:44;;;;;;;24.93;11.83;;;;;;;;;;728128;192;635571;-67
2020/12/22 08:06:10;;;;;;;20.03;11.53;;;;;;;;;;730028;191;914339;-68
2020/12/22 08:08:36;;;;;;;23.27;12.33;;;;;;;;;;725801;191;968134;-69
2020/12/22 08:11:01;;;;;;;23.42;12.60;;;;;;;;;;725961;191;712599;-68
2020/12/22 08:13:27;;;;;;;16.77;9.90;;;;;;;;;;725788;192;918613;-67
2020/12/22 08:15:53;;;;;;;17.30;10.10;;;;;;;;;;723291;192;919311;-68
2020/12/22 08:18:19;;;;;;;19.63;11.20;;;;;;;;;;722036;192;919079;-66
2020/12/22 08:20:45;;;;;;;23.20;11.43;;;;;;;;;;727904;192;919070;-68
2020/12/22 08:23:10;;;;;;;24.08;11.52;;;;;;;;;;721574;192;919461;-67
2020/12/22 08:25:36;;;;;;;19.07;12.03;;;;;;;;;;723719;192;919702;-68
2020/12/22 08:28:02;;;;;;;23.27;12.00;;;;;;;;;;716921;191;918035;-69
2020/12/22 08:30:29;;;;;;;24.77;12.70;;;;;;;;;;720045;193;919394;-69
2020/12/22 08:32:54;;;;;;;22.07;12.07;;;;;;;;;;717061;191;918354;-69
2020/12/22 08:35:20;;;;;;;18.77;11.50;;;;;;;;;;721249;192;919940;-68
2020/12/22 08:37:46;;;;;;;25.80;15.30;;;;;;;;;;723785;192;917808;-67
2020/12/22 08:40:11;;;;;;;22.10;11.40;;;;;;;;;;722136;192;920064;-68
2020/12/22 08:42:37;;;;;;;25.07;12.17;;;;;;;;;;719926;192;919283;-68
2020/12/22 08:45:03;;;;;;;19.17;11.27;;;;;;;;;;725079;191;915098;-68
2020/12/22 08:47:29;;;;;;;25.97;13.17;;;;;;;;;;723247;191;1016876;-68
2020/12/22 08:49:55;;;;;;;29.90;11.43;;;;;;;;;;719986;192;935133;-68
2020/12/22 08:52:21;;;;;;;23.63;12.37;;;;;;;;;;725875;192;915282;-67
2020/12/22 08:54:47;;;;;;;20.95;11.77;;;;;;;;;;724529;191;917561;-68
2020/12/22 08:57:12;;;;;;;18.60;10.20;;;;;;;;;;725572;191;919129;-67
2020/12/22 08:59:38;;;;;;;20.87;11.03;;;;;;;;;;721022;191;918555;-68
2020/12/22 09:02:04;;;;;;;20.20;12.23;;;;;;;;;;722593;192;918644;-68
2020/12/22 09:04:30;;;;;;;17.03;9.90;;;;;;;;;;721820;192;919225;-68
2020/12/22 09:06:56;;;;;;;22.10;11.85;;;;;;;;;;721349;192;918666;-68
2020/12/22 09:09:23;;;;;;;20.93;12.03;;;;;;;;;;726801;191;919150;-68
2020/12/22 09:11:48;;;;;;;21.47;11.43;;;;;;;;;;724544;192;918983;-68
2020/12/22 09:14:15;;;;;;;18.95;10.73;;;;;;;;;;722037;191;919334;-68
2020/12/22 09:16:44;;;;;;;18.97;10.40;;;;;;;;;;726094;192;1021554;-68
2020/12/22 09:19:10;;;;;;;20.23;11.30;;;;;;;;;;722957;192;919129;-67
2020/12/22 09:21:36;;;;;;;19.10;12.00;;;;;;;;;;722215;191;918815;-68
2020/12/22 09:24:02;;;;;;;16.20;10.27;;;;;;;;;;723338;191;919974;-66
2020/12/22 09:26:28;;;;;;;19.03;10.37;;;;;;;;;;726940;192;919355;-68
2020/12/22 09:28:54;;;;;;;25.55;12.37;;;;;;;;;;725760;192;918670;-67
2020/12/22 09:31:24;;;;;;;16.37;10.70;;;;;;;;;;720462;191;918182;-66
2020/12/22 09:33:50;;;;;;;25.20;14.33;;;;;;;;;;727444;192;916984;-68
2020/12/22 09:36:16;;;;;;;18.63;10.57;;;;;;;;;;719042;191;1489514;-68
2020/12/22 09:38:42;;;;;;;20.07;9.80;;;;;;;;;;722712;191;919391;-68
2020/12/22 09:41:08;;;;;;;24.63;10.60;;;;;;;;;;726784;192;919274;-68
2020/12/22 09:43:34;;;;;;;15.97;10.63;;;;;;;;;;724038;192;919029;-68
2020/12/22 09:46:00;;;;;;;24.60;10.77;;;;;;;;;;720388;192;918411;-68
2020/12/22 09:48:25;;;;;;;19.40;10.00;;;;;;;;;;727200;191;640578;-68
2020/12/22 09:50:51;;;;;;;17.00;10.67;;;;;;;;;;728793;192;816447;-67
2020/12/22 09:53:19;;;;;;;16.33;8.80;;;;;;;;;;725686;192;895466;-66
2020/12/22 09:55:45;;;;;;;15.10;9.67;;;;;;;;;;720572;192;1141670;-66
2020/12/22 09:58:11;;;;;;;18.10;10.73;;;;;;;;;;727106;192;918913;-68
2020/12/22 10:00:36;;;;;;;15.27;9.60;;;;;;;;;;721568;192;1157204;-67
2020/12/22 10:03:02;;;;;;;15.17;9.80;;;;;;;;;;722488;192;918885;-67
2020/12/22 10:05:28;;;;;;;18.83;10.40;;;;;;;;;;728911;192;918826;-68
2020/12/22 10:07:54;;;;;;;17.37;9.90;;;;;;;;;;722892;191;919341;-68
2020/12/22 10:10:20;;;;;;;14.73;10.17;;;;;;;;;;724846;192;919490;-66
2020/12/22 10:12:46;;;;;;;15.70;10.35;;;;;;;;;;721142;192;918869;-68
2020/12/22 10:15:12;;;;;;;17.33;10.10;;;;;;;;;;724856;192;918393;-68
2020/12/22 10:17:37;;;;;;;15.83;9.20;;;;;;;;;;722055;192;919856;-67
2020/12/22 10:20:03;;;;;;;14.40;8.60;;;;;;;;;;723414;192;918726;-66
2020/12/22 10:22:29;;;;;;;20.70;9.50;;;;;;;;;;725504;192;920214;-66
2020/12/22 10:24:55;;;;;;;17.07;10.17;;;;;;;;;;726101;192;918500;-68
2020/12/22 10:27:21;;;;;;;13.00;8.37;;;;;;;;;;721260;191;925188;-66
2020/12/22 10:29:47;;;;;;;13.67;8.83;;;;;;;;;;729409;192;916848;-67
2020/12/22 10:32:13;;;;;;;12.17;7.50;;;;;;;;;;721537;192;919116;-67
2020/12/22 10:34:39;;;;;;;12.27;8.17;;;;;;;;;;723525;191;918796;-68
2020/12/22 10:37:05;;;;;;;11.87;8.13;;;;;;;;;;727762;191;919503;-68
2020/12/22 10:39:31;;;;;;;13.00;8.43;;;;;;;;;;719432;191;912922;-67
2020/12/22 10:41:56;;;;;;;12.63;9.40;;;;;;;;;;723178;192;917514;-68
2020/12/22 10:44:22;;;;;;;13.73;8.70;;;;;;;;;;712991;191;1456308;-67
2020/12/22 10:46:48;;;;;;;11.83;7.90;;;;;;;;;;727627;192;919115;-68
2020/12/22 10:49:14;;;;;;;15.13;9.02;;;;;;;;;;720483;191;944212;-66
2020/12/22 10:51:40;;;;;;;13.87;9.67;;;;;;;;;;721670;191;918851;-67
2020/12/22 10:54:06;;;;;;;15.13;8.07;;;;;;;;;;725584;191;918011;-67
2020/12/22 10:56:31;;;;;;;12.55;8.13;;;;;;;;;;722866;191;918425;-67
2020/12/22 10:58:58;;;;;;;12.30;8.97;;;;;;;;;;721242;192;917759;-67
2020/12/22 11:01:23;;;;;;;15.47;9.70;;;;;;;;;;727773;191;917444;-67
2020/12/22 11:03:49;;;;;;;12.53;8.17;;;;;;;;;;724329;192;918243;-67
2020/12/22 11:06:22;;;;;;;14.20;8.65;;;;;;;;;;724917;191;917708;-67
2020/12/22 11:08:42;;;;;;;18.53;9.47;;;;;;;;;;726215;191;918065;-67
2020/12/22 11:11:07;;;;;;;18.10;12.00;;;;;;;;;;724523;192;919102;-67
2020/12/22 11:13:34;;;;;;;19.40;10.53;;;;;;;;;;722910;191;916129;-66
2020/12/22 11:16:00;;;;;;;21.30;11.50;;;;;;;;;;721012;190;921260;-67
2020/12/22 11:18:26;;;;;;;16.00;10.37;;;;;;;;;;730501;191;916585;-66
2020/12/22 11:20:52;;;;;;;15.17;10.87;;;;;;;;;;718100;191;919123;-68
2020/12/22 11:23:18;;;;;;;19.37;11.70;;;;;;;;;;724395;191;918738;-68
2020/12/22 11:25:44;;;;;;;14.80;8.87;;;;;;;;;;725566;191;918984;-67
2020/12/22 11:28:09;;;;;;;15.47;8.87;;;;;;;;;;723924;191;920835;-67
2020/12/22 11:30:35;;;;;;;20.70;11.37;;;;;;;;;;722206;192;918506;-67
2020/12/22 11:33:02;;;;;;;16.47;11.17;;;;;;;;;;729342;192;919511;-67
2020/12/22 11:35:27;;;;;;;16.77;11.13;;;;;;;;;;722305;192;918583;-67
2020/12/22 11:37:53;;;;;;;16.50;11.48;;;;;;;;;;722160;192;919174;-66
2020/12/22 11:40:19;;;;;;;14.40;10.00;;;;;;;;;;719327;192;918790;-66
2020/12/22 11:42:44;;;;;;;18.30;10.23;;;;;;;;;;721645;193;918945;-67
2020/12/22 11:45:10;;;;;;;26.87;9.50;;;;;;;;;;717560;192;917784;-69
2020/12/22 11:47:36;;;;;;;12.77;9.10;;;;;;;;;;724879;192;919055;-67
2020/12/22 11:50:02;;;;;;;15.02;9.73;;;;;;;;;;726899;192;919245;-68
2020/12/22 11:52:28;;;;;;;13.83;9.67;;;;;;;;;;722275;192;919218;-67
2020/12/22 11:54:54;;;;;;;16.30;10.23;;;;;;;;;;721392;192;919271;-68
2020/12/22 11:57:20;;;;;;;15.60;9.93;;;;;;;;;;725165;191;913984;-66
2020/12/22 11:59:46;;;;;;;17.10;10.20;;;;;;;;;;720498;191;919736;-67
2020/12/22 12:02:11;;;;;;;14.80;9.20;;;;;;;;;;721586;191;916436;-67
2020/12/22 12:04:37;;;;;;;13.00;9.47;;;;;;;;;;726921;191;916327;-67
2020/12/22 12:07:03;;;;;;;14.50;9.60;;;;;;;;;;719093;192;1074036;-67
2020/12/22 12:09:29;;;;;;;15.23;10.70;;;;;;;;;;721574;191;915954;-66
2020/12/22 12:11:55;;;;;;;14.27;10.60;;;;;;;;;;720261;191;938666;-67
2020/12/22 12:14:21;;;;;;;16.00;10.10;;;;;;;;;;728298;191;914706;-67
2020/12/22 12:16:47;;;;;;;12.70;8.73;;;;;;;;;;720945;191;914941;-66
2020/12/22 12:19:13;;;;;;;16.63;11.43;;;;;;;;;;722337;191;919712;-67
2020/12/22 12:21:38;;;;;;;16.17;11.70;;;;;;;;;;725283;191;913244;-67
2020/12/22 12:24:05;;;;;;;15.90;9.83;;;;;;;;;;723695;191;915696;-68
2020/12/22 12:26:31;;;;;;;15.50;9.40;;;;;;;;;;722122;191;917959;-67
2020/12/22 12:28:56;;;;;;;18.30;11.13;;;;;;;;;;731439;190;944455;-66
2020/12/22 12:31:24;;;;;;;21.67;12.63;;;;;;;;;;727364;191;917500;-67
2020/12/22 12:33:48;;;;;;;18.95;9.98;;;;;;;;;;723569;191;910869;-68
2020/12/22 12:36:15;;;;;;;14.60;8.90;;;;;;;;;;728099;191;949489;-66
2020/12/22 12:38:40;;;;;;;15.23;8.70;;;;;;;;;;721230;192;912650;-66
2020/12/22 12:41:06;;;;;;;15.23;10.18;;;;;;;;;;723470;191;914392;-67
2020/12/22 12:43:32;;;;;;;13.47;8.90;;;;;;;;;;721510;192;918871;-67
2020/12/22 12:45:58;;;;;;;12.93;8.07;;;;;;;;;;728365;192;918631;-66
2020/12/22 12:48:24;;;;;;;15.45;8.82;;;;;;;;;;718442;192;918281;-68
2020/12/22 12:50:50;;;;;;;14.27;8.67;;;;;;;;;;725000;192;919073;-66
2020/12/22 12:53:16;;;;;;;12.20;7.80;;;;;;;;;;724499;192;1113240;-67
2020/12/22 12:55:42;;;;;;;14.30;7.80;;;;;;;;;;724356;192;919749;-66
2020/12/22 12:58:07;;;;;;;10.07;7.00;;;;;;;;;;720976;192;1020851;-67
2020/12/22 13:00:33;;;;;;;9.40;6.73;;;;;;;;;;726306;192;918997;-66
2020/12/22 13:02:59;;;;;;;10.60;7.45;;;;;;;;;;719934;192;1022137;-67
2020/12/22 13:05:25;;;;;;;11.80;7.70;;;;;;;;;;724459;192;919333;-67
2020/12/22 13:07:51;;;;;;;9.97;6.57;;;;;;;;;;721230;191;914547;-67
2020/12/22 13:10:17;;;;;;;10.37;6.90;;;;;;;;;;716285;192;918648;-66
2020/12/22 13:12:42;;;;;;;9.43;6.17;;;;;;;;;;723746;192;921027;-66
2020/12/22 13:15:08;;;;;;;10.98;7.12;;;;;;;;;;720413;191;1146097;-66
2020/12/22 13:17:34;;;;;;;10.17;7.57;;;;;;;;;;728543;192;915382;-67
2020/12/22 13:20:00;;;;;;;8.85;6.43;;;;;;;;;;721253;191;914737;-67
2020/12/22 13:22:26;;;;;;;9.97;6.00;;;;;;;;;;723379;191;911884;-67
2020/12/22 13:24:52;;;;;;;10.80;6.40;;;;;;;;;;726429;192;911387;-66
2020/12/22 13:27:18;;;;;;;14.68;9.30;;;;;;;;;;723919;191;918379;-67
2020/12/22 13:29:43;;;;;;;11.13;8.37;;;;;;;;;;721730;191;918101;-66
2020/12/22 13:32:10;;;;;;;13.50;7.50;;;;;;;;;;727264;191;917617;-67
2020/12/22 13:34:35;;;;;;;10.30;6.20;;;;;;;;;;719590;192;849185;-66
2020/12/22 13:37:01;;;;;;;12.47;7.47;;;;;;;;;;720535;193;950843;-66
2020/12/22 13:39:27;;;;;;;15.00;8.63;;;;;;;;;;716978;190;1004176;-66
2020/12/22 13:41:53;;;;;;;18.63;12.17;;;;;;;;;;721087;193;917933;-66
2020/12/22 13:44:19;;;;;;;17.70;11.00;;;;;;;;;;717806;193;978933;-67
2020/12/22 13:46:44;;;;;;;13.85;8.00;;;;;;;;;;718918;191;1357505;-67
2020/12/22 13:49:10;;;;;;;18.93;11.23;;;;;;;;;;728427;192;916988;-66
2020/12/22 13:51:36;;;;;;;18.77;10.60;;;;;;;;;;720434;192;919025;-67
2020/12/22 13:54:02;;;;;;;19.43;9.33;;;;;;;;;;723880;192;919620;-67
2020/12/22 13:56:28;;;;;;;15.00;9.93;;;;;;;;;;728591;192;918270;-66
2020/12/22 13:58:54;;;;;;;22.90;11.60;;;;;;;;;;723923;192;918494;-66